Home > Products > Valid Products > TAF

000
FTUS44 KLUB 011700
TAFCDS
TAF
KCDS 011722Z 0118/0218 27008KT P6SM SKC
     FM012300 18011KT P6SM SCT080 SCT250
     FM021400 35015G25KT P6SM SCT040=



000
FTUS44 KLUB 011700
TAFLBB
TAF
KLBB 011722Z 0118/0218 22011KT P6SM SKC
     FM012300 20010KT P6SM FEW080
     FM021300 35015G25KT P6SM FEW040=



000
FTUS44 KLUB 011100
TAFCDS
TAF
KCDS 011139Z 0112/0212 22011KT P6SM SKC
     FM012300 18011KT P6SM SCT080 SCT250=



000
FTUS44 KLUB 011100
TAFLBB
TAF
KLBB 011139Z 0112/0212 24011KT P6SM SKC
     FM012300 20010KT P6SM FEW080 SCT250=



000
FTUS44 KLUB 010500
TAFLBB
TAF
KLBB 010520Z 0106/0206 24011KT P6SM SKC=



000
FTUS44 KLUB 010500
TAFCDS
TAF
KCDS 010520Z 0106/0206 22011KT P6SM SKC=



000
FTUS44 KLUB 010200 AAA
TAFCDS
TAF AMD
KCDS 010229Z 0102/0124 15009KT P6SM SCT060
     FM010500 21009KT P6SM SKC=



000
FTUS44 KLUB 302300
TAFLBB
TAF
KLBB 302320Z 0100/0124 24009KT P6SM SCT070=



000
FTUS44 KLUB 302300
TAFCDS
TAF
KCDS 302320Z 0100/0124 18016G25KT P6SM SCT060
     FM010500 21009KT P6SM SKC=



000
FTUS44 KLUB 301700
TAFLBB
TAF
KLBB 301723Z 3018/0118 20013KT P6SM FEW200
     FM302100 20013KT P6SM SCT050 SCT200
     FM010200 VRB06KT P6SM FEW200=



000
FTUS44 KLUB 301700
TAFCDS
TAF
KCDS 301723Z 3018/0118 19014KT P6SM FEW090
     FM302100 19016G25KT P6SM SCT050
      TEMPO 3023/0103 5SM -TSRA BKN040CB
     FM010500 16011KT P6SM BKN070=



000
FTUS44 KLUB 301100 RRA
TAFCDS
TAF
KCDS 301142Z 3012/0112 14007KT P6SM SCT150
     FM301500 19012KT P6SM BKN100
     FM302100 19016G25KT P6SM SCT050
     FM010200 16011KT P6SM BKN070 PROB30 0102/0105 5SM -TSRA
      BKN045CB=



000
FTUS44 KLUB 301100 RRA
TAFLBB
TAF
KLBB 301142Z 3012/0112 18009KT P6SM SCT100
     FM301800 19014G20KT P6SM SCT050 SCT100=



000
FTUS44 KLUB 300800 AAA
TAFLBB
TAF AMD
KLBB 300828Z 3008/0106 18008KT P6SM VCTS SCT090CB
     FM300900 18009KT P6SM SCT110
     FM301800 19014G20KT P6SM SCT050=



000
FTUS44 KLUB 300500
TAFCDS
TAF
KCDS 300520Z 3006/0106 14007KT P6SM SCT150
     FM301500 19012KT P6SM BKN100
     FM302100 19016G25KT P6SM SCT040=



000
FTUS44 KLUB 300500
TAFLBB
TAF
KLBB 300520Z 3006/0106 15010KT P6SM SCT250
     FM300900 18008KT P6SM SCT090
     FM301800 19014G20KT P6SM SCT050=



000
FTUS44 KLUB 292300
TAFCDS
TAF
KCDS 292323Z 3000/3024 16007KT P6SM SCT150
     FM301500 19011KT P6SM BKN070=



000
FTUS44 KLUB 292300
TAFLBB
TAF
KLBB 292323Z 3000/3024 16012KT P6SM SCT250
     FM300900 18008KT P6SM BKN090
     FM301700 19015G20KT P6SM SCT035=



000
FTUS44 KLUB 291700
TAFLBB
TAF
KLBB 291736Z 2918/3018 15008KT P6SM FEW040
     FM292000 16014KT P6SM SCT040
     FM300900 19008KT P6SM SCT300=



000
FTUS44 KLUB 291700
TAFCDS
TAF
KCDS 291736Z 2918/3018 16007KT P6SM FEW050
     FM301500 19011KT P6SM BKN070=



000
FTUS44 KLUB 291100
TAFCDS
TAF
KCDS 291120Z 2912/3012 16007KT P6SM FEW050=



000
FTUS44 KLUB 291100
TAFLBB
TAF
KLBB 291120Z 2912/3012 15008KT P6SM SKC
     FM291900 16014KT P6SM SCT040
     FM300100 17008KT P6SM SCT250=



000
FTUS44 KLUB 290500
TAFLBB
TAF
KLBB 290520Z 2906/3006 15008KT P6SM FEW250
     FM291700 16013G18KT P6SM SCT060 BKN250=



000
FTUS44 KLUB 290500
TAFCDS
TAF
KCDS 290520Z 2906/3006 16006KT P6SM SKC
     FM291700 16010G14KT P6SM SCT060 SCT250=



000
FTUS44 KLUB 282300
TAFLBB
TAF
KLBB 282330Z 2900/2924 15009KT P6SM FEW050
      TEMPO 2911/2915 6SM BR
     FM291700 16013G18KT P6SM FEW060 SCT250=



000
FTUS44 KLUB 282300
TAFCDS
TAF
KCDS 282330Z 2900/2924 14008KT P6SM FEW060
     FM291700 16010G14KT P6SM SCT060=



    US Dept of Commerce
    National Oceanic and Atmospheric Administration
    National Weather Service
    1325 East West Highway
    Silver Spring, MD 20910
    Page Author: NWS Internet Services Team
Disclaimer
Information Quality
Credits
Glossary
Privacy Policy
Freedom of Information Act (FOIA)
About Us
Career Opportunities